sensor_id;sensor_type;location;lat;lon;timestamp;P1;durP1;ratioP1;P2;durP2;ratioP2
12593;SDS011;6362;50.208;9.182;2023-07-24T00:02:05;2.58;;;1.90;;
12593;SDS011;6362;50.208;9.182;2023-07-24T00:04:31;3.13;;;2.00;;
12593;SDS011;6362;50.208;9.182;2023-07-24T00:06:57;3.85;;;2.15;;
12593;SDS011;6362;50.208;9.182;2023-07-24T00:09:22;2.28;;;2.00;;
12593;SDS011;6362;50.208;9.182;2023-07-24T00:11:48;3.10;;;1.80;;
12593;SDS011;6362;50.208;9.182;2023-07-24T00:14:14;3.83;;;1.92;;
12593;SDS011;6362;50.208;9.182;2023-07-24T00:16:40;2.85;;;2.30;;
12593;SDS011;6362;50.208;9.182;2023-07-24T00:19:05;2.10;;;1.90;;
12593;SDS011;6362;50.208;9.182;2023-07-24T00:21:31;3.88;;;1.98;;
12593;SDS011;6362;50.208;9.182;2023-07-24T00:23:56;2.45;;;1.85;;
12593;SDS011;6362;50.208;9.182;2023-07-24T00:26:22;3.53;;;2.42;;
12593;SDS011;6362;50.208;9.182;2023-07-24T00:28:47;3.00;;;1.90;;
12593;SDS011;6362;50.208;9.182;2023-07-24T00:31:12;2.83;;;1.90;;
12593;SDS011;6362;50.208;9.182;2023-07-24T00:33:38;3.10;;;2.20;;
12593;SDS011;6362;50.208;9.182;2023-07-24T00:36:03;3.72;;;2.50;;
12593;SDS011;6362;50.208;9.182;2023-07-24T00:38:29;3.13;;;1.83;;
12593;SDS011;6362;50.208;9.182;2023-07-24T00:40:54;3.55;;;1.92;;
12593;SDS011;6362;50.208;9.182;2023-07-24T00:43:20;3.92;;;2.45;;
12593;SDS011;6362;50.208;9.182;2023-07-24T00:45:45;3.42;;;2.10;;
12593;SDS011;6362;50.208;9.182;2023-07-24T00:48:12;3.42;;;2.42;;
12593;SDS011;6362;50.208;9.182;2023-07-24T00:50:37;2.83;;;1.90;;
12593;SDS011;6362;50.208;9.182;2023-07-24T00:53:04;3.60;;;2.40;;
12593;SDS011;6362;50.208;9.182;2023-07-24T00:55:30;3.60;;;2.33;;
12593;SDS011;6362;50.208;9.182;2023-07-24T00:57:56;3.00;;;1.83;;
12593;SDS011;6362;50.208;9.182;2023-07-24T01:00:23;2.38;;;1.88;;
12593;SDS011;6362;50.208;9.182;2023-07-24T01:02:48;3.92;;;2.50;;
12593;SDS011;6362;50.208;9.182;2023-07-24T01:05:14;2.85;;;2.17;;
12593;SDS011;6362;50.208;9.182;2023-07-24T01:07:41;3.72;;;2.20;;
12593;SDS011;6362;50.208;9.182;2023-07-24T01:10:07;4.18;;;2.38;;
12593;SDS011;6362;50.208;9.182;2023-07-24T01:15:16;2.55;;;2.05;;
12593;SDS011;6362;50.208;9.182;2023-07-24T01:17:52;2.67;;;1.92;;
12593;SDS011;6362;50.208;9.182;2023-07-24T01:20:23;3.58;;;2.25;;
12593;SDS011;6362;50.208;9.182;2023-07-24T01:23:11;2.92;;;2.13;;
12593;SDS011;6362;50.208;9.182;2023-07-24T01:25:51;3.33;;;1.95;;
12593;SDS011;6362;50.208;9.182;2023-07-24T01:28:24;3.25;;;1.75;;
12593;SDS011;6362;50.208;9.182;2023-07-24T01:30:50;2.33;;;1.90;;
12593;SDS011;6362;50.208;9.182;2023-07-24T01:33:16;3.95;;;2.60;;
12593;SDS011;6362;50.208;9.182;2023-07-24T01:35:42;2.50;;;1.73;;
12593;SDS011;6362;50.208;9.182;2023-07-24T01:38:09;3.42;;;2.10;;
12593;SDS011;6362;50.208;9.182;2023-07-24T01:40:37;5.20;;;2.30;;
12593;SDS011;6362;50.208;9.182;2023-07-24T01:43:04;3.22;;;2.20;;
12593;SDS011;6362;50.208;9.182;2023-07-24T01:45:29;3.30;;;2.10;;
12593;SDS011;6362;50.208;9.182;2023-07-24T01:47:54;3.03;;;1.98;;
12593;SDS011;6362;50.208;9.182;2023-07-24T01:50:20;3.58;;;2.40;;
12593;SDS011;6362;50.208;9.182;2023-07-24T01:52:45;3.05;;;2.22;;
12593;SDS011;6362;50.208;9.182;2023-07-24T01:55:11;3.35;;;1.90;;
12593;SDS011;6362;50.208;9.182;2023-07-24T01:57:36;2.25;;;1.77;;
12593;SDS011;6362;50.208;9.182;2023-07-24T02:00:02;2.60;;;1.83;;
12593;SDS011;6362;50.208;9.182;2023-07-24T02:02:27;3.78;;;2.33;;
12593;SDS011;6362;50.208;9.182;2023-07-24T02:04:53;3.38;;;2.15;;
12593;SDS011;6362;50.208;9.182;2023-07-24T02:07:18;3.05;;;2.25;;
12593;SDS011;6362;50.208;9.182;2023-07-24T02:09:44;3.35;;;2.17;;
12593;SDS011;6362;50.208;9.182;2023-07-24T02:12:09;3.53;;;2.17;;
12593;SDS011;6362;50.208;9.182;2023-07-24T02:14:35;2.88;;;2.05;;
12593;SDS011;6362;50.208;9.182;2023-07-24T02:17:00;5.22;;;2.35;;
12593;SDS011;6362;50.208;9.182;2023-07-24T02:19:26;3.33;;;2.17;;
12593;SDS011;6362;50.208;9.182;2023-07-24T02:21:51;2.30;;;1.98;;
12593;SDS011;6362;50.208;9.182;2023-07-24T02:24:17;2.28;;;2.00;;
12593;SDS011;6362;50.208;9.182;2023-07-24T02:26:42;2.65;;;2.17;;
12593;SDS011;6362;50.208;9.182;2023-07-24T02:29:07;2.28;;;1.90;;
12593;SDS011;6362;50.208;9.182;2023-07-24T02:31:33;3.22;;;2.05;;
12593;SDS011;6362;50.208;9.182;2023-07-24T02:33:59;3.05;;;2.17;;
12593;SDS011;6362;50.208;9.182;2023-07-24T02:36:24;2.22;;;1.80;;
12593;SDS011;6362;50.208;9.182;2023-07-24T02:38:50;3.47;;;2.05;;
12593;SDS011;6362;50.208;9.182;2023-07-24T02:41:15;3.17;;;2.35;;
12593;SDS011;6362;50.208;9.182;2023-07-24T02:43:41;3.10;;;1.90;;
12593;SDS011;6362;50.208;9.182;2023-07-24T02:46:06;3.25;;;2.63;;
12593;SDS011;6362;50.208;9.182;2023-07-24T02:48:32;4.93;;;2.20;;
12593;SDS011;6362;50.208;9.182;2023-07-24T02:50:57;3.50;;;2.35;;
12593;SDS011;6362;50.208;9.182;2023-07-24T02:53:22;3.42;;;2.20;;
12593;SDS011;6362;50.208;9.182;2023-07-24T02:55:48;2.97;;;2.30;;
12593;SDS011;6362;50.208;9.182;2023-07-24T02:58:13;3.20;;;2.45;;
12593;SDS011;6362;50.208;9.182;2023-07-24T03:00:39;3.92;;;2.50;;
12593;SDS011;6362;50.208;9.182;2023-07-24T03:03:05;4.43;;;2.22;;
12593;SDS011;6362;50.208;9.182;2023-07-24T03:05:30;2.65;;;2.10;;
12593;SDS011;6362;50.208;9.182;2023-07-24T03:07:56;3.08;;;2.25;;
12593;SDS011;6362;50.208;9.182;2023-07-24T03:10:25;3.65;;;2.40;;
12593;SDS011;6362;50.208;9.182;2023-07-24T03:12:50;3.80;;;2.33;;
12593;SDS011;6362;50.208;9.182;2023-07-24T03:15:16;4.05;;;2.30;;
12593;SDS011;6362;50.208;9.182;2023-07-24T03:17:41;3.92;;;2.00;;
12593;SDS011;6362;50.208;9.182;2023-07-24T03:20:25;2.40;;;1.98;;
12593;SDS011;6362;50.208;9.182;2023-07-24T03:22:50;3.70;;;2.20;;
12593;SDS011;6362;50.208;9.182;2023-07-24T03:25:15;3.17;;;1.92;;
12593;SDS011;6362;50.208;9.182;2023-07-24T03:27:41;3.67;;;2.17;;
12593;SDS011;6362;50.208;9.182;2023-07-24T03:30:06;3.05;;;2.10;;
12593;SDS011;6362;50.208;9.182;2023-07-24T03:32:32;3.70;;;2.53;;
12593;SDS011;6362;50.208;9.182;2023-07-24T03:34:58;4.22;;;2.55;;
12593;SDS011;6362;50.208;9.182;2023-07-24T03:37:23;4.63;;;2.80;;
12593;SDS011;6362;50.208;9.182;2023-07-24T03:39:48;3.50;;;2.25;;
12593;SDS011;6362;50.208;9.182;2023-07-24T03:42:24;3.55;;;2.47;;
12593;SDS011;6362;50.208;9.182;2023-07-24T03:44:51;3.72;;;2.58;;
12593;SDS011;6362;50.208;9.182;2023-07-24T03:47:16;3.00;;;2.28;;
12593;SDS011;6362;50.208;9.182;2023-07-24T03:49:42;3.45;;;2.65;;
12593;SDS011;6362;50.208;9.182;2023-07-24T03:52:07;3.60;;;2.40;;
12593;SDS011;6362;50.208;9.182;2023-07-24T03:54:32;3.50;;;2.50;;
12593;SDS011;6362;50.208;9.182;2023-07-24T03:56:58;3.53;;;2.20;;
12593;SDS011;6362;50.208;9.182;2023-07-24T03:59:23;3.40;;;2.40;;
12593;SDS011;6362;50.208;9.182;2023-07-24T04:01:49;3.50;;;2.42;;
12593;SDS011;6362;50.208;9.182;2023-07-24T04:04:14;3.40;;;2.40;;
12593;SDS011;6362;50.208;9.182;2023-07-24T04:06:40;3.08;;;2.08;;
12593;SDS011;6362;50.208;9.182;2023-07-24T04:09:05;3.78;;;2.85;;
12593;SDS011;6362;50.208;9.182;2023-07-24T04:11:30;5.30;;;2.40;;
12593;SDS011;6362;50.208;9.182;2023-07-24T04:13:56;3.55;;;2.72;;
12593;SDS011;6362;50.208;9.182;2023-07-24T04:16:21;4.43;;;2.80;;
12593;SDS011;6362;50.208;9.182;2023-07-24T04:18:47;4.47;;;2.88;;
12593;SDS011;6362;50.208;9.182;2023-07-24T04:21:12;5.13;;;2.85;;
12593;SDS011;6362;50.208;9.182;2023-07-24T04:23:37;3.65;;;2.70;;
12593;SDS011;6362;50.208;9.182;2023-07-24T04:26:03;5.40;;;2.95;;
12593;SDS011;6362;50.208;9.182;2023-07-24T04:28:28;6.07;;;3.15;;
12593;SDS011;6362;50.208;9.182;2023-07-24T04:30:54;5.10;;;2.65;;
12593;SDS011;6362;50.208;9.182;2023-07-24T04:33:19;3.80;;;2.50;;
12593;SDS011;6362;50.208;9.182;2023-07-24T04:35:47;4.45;;;2.78;;
12593;SDS011;6362;50.208;9.182;2023-07-24T04:38:14;5.93;;;3.10;;
12593;SDS011;6362;50.208;9.182;2023-07-24T04:40:39;3.70;;;2.45;;
12593;SDS011;6362;50.208;9.182;2023-07-24T04:43:04;3.90;;;2.25;;
12593;SDS011;6362;50.208;9.182;2023-07-24T04:45:30;5.45;;;2.67;;
12593;SDS011;6362;50.208;9.182;2023-07-24T04:47:55;3.55;;;2.67;;
12593;SDS011;6362;50.208;9.182;2023-07-24T04:50:21;4.05;;;2.83;;
12593;SDS011;6362;50.208;9.182;2023-07-24T04:52:46;3.90;;;2.45;;
12593;SDS011;6362;50.208;9.182;2023-07-24T04:55:11;5.32;;;2.80;;
12593;SDS011;6362;50.208;9.182;2023-07-24T04:57:37;3.65;;;2.50;;
12593;SDS011;6362;50.208;9.182;2023-07-24T05:00:02;4.25;;;2.72;;
12593;SDS011;6362;50.208;9.182;2023-07-24T05:02:28;5.57;;;3.15;;
12593;SDS011;6362;50.208;9.182;2023-07-24T05:04:54;3.13;;;2.08;;
12593;SDS011;6362;50.208;9.182;2023-07-24T05:07:19;3.78;;;2.47;;
12593;SDS011;6362;50.208;9.182;2023-07-24T05:09:45;5.63;;;2.75;;
12593;SDS011;6362;50.208;9.182;2023-07-24T05:12:10;4.65;;;2.70;;
12593;SDS011;6362;50.208;9.182;2023-07-24T05:14:35;3.78;;;2.80;;
12593;SDS011;6362;50.208;9.182;2023-07-24T05:17:01;4.28;;;2.40;;
12593;SDS011;6362;50.208;9.182;2023-07-24T05:19:26;3.75;;;3.00;;
12593;SDS011;6362;50.208;9.182;2023-07-24T05:21:52;3.28;;;2.42;;
12593;SDS011;6362;50.208;9.182;2023-07-24T05:24:17;5.20;;;2.60;;
12593;SDS011;6362;50.208;9.182;2023-07-24T05:26:42;6.00;;;2.80;;
12593;SDS011;6362;50.208;9.182;2023-07-24T05:29:08;3.78;;;2.30;;
12593;SDS011;6362;50.208;9.182;2023-07-24T05:31:34;3.67;;;2.78;;
12593;SDS011;6362;50.208;9.182;2023-07-24T05:34:00;4.47;;;2.60;;
12593;SDS011;6362;50.208;9.182;2023-07-24T05:36:25;3.65;;;2.50;;
12593;SDS011;6362;50.208;9.182;2023-07-24T05:38:51;3.47;;;2.38;;
12593;SDS011;6362;50.208;9.182;2023-07-24T05:41:18;3.47;;;2.65;;
12593;SDS011;6362;50.208;9.182;2023-07-24T05:43:43;3.28;;;2.50;;
12593;SDS011;6362;50.208;9.182;2023-07-24T05:46:08;5.20;;;2.67;;
12593;SDS011;6362;50.208;9.182;2023-07-24T05:48:34;4.03;;;2.70;;
12593;SDS011;6362;50.208;9.182;2023-07-24T05:50:59;5.20;;;2.92;;
12593;SDS011;6362;50.208;9.182;2023-07-24T05:53:24;4.65;;;3.00;;
12593;SDS011;6362;50.208;9.182;2023-07-24T05:55:57;5.43;;;3.20;;
12593;SDS011;6362;50.208;9.182;2023-07-24T05:58:23;4.45;;;2.88;;
12593;SDS011;6362;50.208;9.182;2023-07-24T06:00:49;4.68;;;2.78;;
12593;SDS011;6362;50.208;9.182;2023-07-24T06:03:14;4.28;;;2.85;;
12593;SDS011;6362;50.208;9.182;2023-07-24T06:05:39;3.90;;;3.08;;
12593;SDS011;6362;50.208;9.182;2023-07-24T06:08:05;4.13;;;2.60;;
12593;SDS011;6362;50.208;9.182;2023-07-24T06:10:30;5.43;;;2.63;;
12593;SDS011;6362;50.208;9.182;2023-07-24T06:12:56;3.85;;;2.83;;
12593;SDS011;6362;50.208;9.182;2023-07-24T06:15:21;4.90;;;2.80;;
12593;SDS011;6362;50.208;9.182;2023-07-24T06:17:47;4.28;;;2.42;;
12593;SDS011;6362;50.208;9.182;2023-07-24T06:20:12;3.50;;;2.50;;
12593;SDS011;6362;50.208;9.182;2023-07-24T06:22:38;4.68;;;2.83;;
12593;SDS011;6362;50.208;9.182;2023-07-24T06:25:03;3.78;;;2.47;;
12593;SDS011;6362;50.208;9.182;2023-07-24T06:27:29;3.30;;;2.55;;
12593;SDS011;6362;50.208;9.182;2023-07-24T06:29:54;3.60;;;2.55;;
12593;SDS011;6362;50.208;9.182;2023-07-24T06:32:20;4.22;;;2.38;;
12593;SDS011;6362;50.208;9.182;2023-07-24T06:34:45;3.35;;;2.30;;
12593;SDS011;6362;50.208;9.182;2023-07-24T06:37:10;4.55;;;2.58;;
12593;SDS011;6362;50.208;9.182;2023-07-24T06:39:36;3.47;;;2.20;;
12593;SDS011;6362;50.208;9.182;2023-07-24T06:42:01;4.15;;;2.72;;
12593;SDS011;6362;50.208;9.182;2023-07-24T06:44:27;4.78;;;2.80;;
12593;SDS011;6362;50.208;9.182;2023-07-24T06:46:52;5.18;;;3.05;;
12593;SDS011;6362;50.208;9.182;2023-07-24T06:49:17;5.88;;;2.95;;
12593;SDS011;6362;50.208;9.182;2023-07-24T06:51:43;5.55;;;3.72;;
12593;SDS011;6362;50.208;9.182;2023-07-24T06:54:08;4.50;;;2.85;;
12593;SDS011;6362;50.208;9.182;2023-07-24T06:56:34;5.63;;;3.35;;
12593;SDS011;6362;50.208;9.182;2023-07-24T06:58:59;5.10;;;3.25;;
12593;SDS011;6362;50.208;9.182;2023-07-24T07:01:24;4.65;;;2.75;;
12593;SDS011;6362;50.208;9.182;2023-07-24T07:03:50;5.65;;;3.15;;
12593;SDS011;6362;50.208;9.182;2023-07-24T07:06:15;3.88;;;3.05;;
12593;SDS011;6362;50.208;9.182;2023-07-24T07:08:41;3.53;;;2.50;;
12593;SDS011;6362;50.208;9.182;2023-07-24T07:11:06;3.53;;;2.42;;
12593;SDS011;6362;50.208;9.182;2023-07-24T07:13:32;4.75;;;2.40;;
12593;SDS011;6362;50.208;9.182;2023-07-24T07:15:57;4.50;;;3.05;;
12593;SDS011;6362;50.208;9.182;2023-07-24T07:18:22;5.07;;;3.38;;
12593;SDS011;6362;50.208;9.182;2023-07-24T07:20:52;6.78;;;3.42;;
12593;SDS011;6362;50.208;9.182;2023-07-24T07:23:18;6.15;;;3.67;;
12593;SDS011;6362;50.208;9.182;2023-07-24T07:25:45;5.38;;;3.05;;
12593;SDS011;6362;50.208;9.182;2023-07-24T07:28:14;4.78;;;3.50;;
12593;SDS011;6362;50.208;9.182;2023-07-24T07:30:40;5.03;;;3.30;;
12593;SDS011;6362;50.208;9.182;2023-07-24T07:33:06;6.43;;;4.13;;
12593;SDS011;6362;50.208;9.182;2023-07-24T07:35:32;5.82;;;3.40;;
12593;SDS011;6362;50.208;9.182;2023-07-24T07:37:58;4.97;;;3.40;;
12593;SDS011;6362;50.208;9.182;2023-07-24T07:40:25;6.05;;;3.50;;
12593;SDS011;6362;50.208;9.182;2023-07-24T07:42:52;6.60;;;3.78;;
12593;SDS011;6362;50.208;9.182;2023-07-24T07:45:21;5.20;;;3.95;;
12593;SDS011;6362;50.208;9.182;2023-07-24T07:47:47;6.13;;;3.33;;
12593;SDS011;6362;50.208;9.182;2023-07-24T07:50:12;7.90;;;3.83;;
12593;SDS011;6362;50.208;9.182;2023-07-24T07:52:38;4.85;;;3.45;;
12593;SDS011;6362;50.208;9.182;2023-07-24T07:55:04;5.30;;;3.05;;
12593;SDS011;6362;50.208;9.182;2023-07-24T07:57:31;5.28;;;3.65;;
12593;SDS011;6362;50.208;9.182;2023-07-24T08:00:04;6.30;;;4.15;;
12593;SDS011;6362;50.208;9.182;2023-07-24T08:02:30;5.90;;;3.70;;
12593;SDS011;6362;50.208;9.182;2023-07-24T08:04:57;5.13;;;3.72;;
12593;SDS011;6362;50.208;9.182;2023-07-24T08:07:22;12.40;;;3.95;;
12593;SDS011;6362;50.208;9.182;2023-07-24T08:09:48;8.02;;;4.20;;
12593;SDS011;6362;50.208;9.182;2023-07-24T08:12:13;5.55;;;4.10;;
12593;SDS011;6362;50.208;9.182;2023-07-24T08:14:41;6.03;;;3.95;;
12593;SDS011;6362;50.208;9.182;2023-07-24T08:17:06;5.97;;;3.95;;
12593;SDS011;6362;50.208;9.182;2023-07-24T08:19:32;7.03;;;4.00;;
12593;SDS011;6362;50.208;9.182;2023-07-24T08:21:57;8.13;;;4.30;;
12593;SDS011;6362;50.208;9.182;2023-07-24T08:24:23;7.03;;;4.22;;
12593;SDS011;6362;50.208;9.182;2023-07-24T08:26:48;10.43;;;4.05;;
12593;SDS011;6362;50.208;9.182;2023-07-24T08:29:14;8.65;;;4.57;;
12593;SDS011;6362;50.208;9.182;2023-07-24T08:31:39;6.78;;;4.18;;
12593;SDS011;6362;50.208;9.182;2023-07-24T08:34:05;5.60;;;4.10;;
12593;SDS011;6362;50.208;9.182;2023-07-24T08:36:30;7.18;;;4.60;;
12593;SDS011;6362;50.208;9.182;2023-07-24T08:38:55;5.35;;;3.88;;
12593;SDS011;6362;50.208;9.182;2023-07-24T08:41:21;7.53;;;3.90;;
12593;SDS011;6362;50.208;9.182;2023-07-24T08:43:46;5.85;;;3.40;;
12593;SDS011;6362;50.208;9.182;2023-07-24T08:46:12;5.95;;;3.38;;
12593;SDS011;6362;50.208;9.182;2023-07-24T08:48:41;6.75;;;3.58;;
12593;SDS011;6362;50.208;9.182;2023-07-24T08:53:34;4.90;;;3.22;;
12593;SDS011;6362;50.208;9.182;2023-07-24T08:56:02;8.25;;;4.30;;
12593;SDS011;6362;50.208;9.182;2023-07-24T08:58:28;6.68;;;3.92;;
12593;SDS011;6362;50.208;9.182;2023-07-24T09:00:55;5.35;;;3.45;;
12593;SDS011;6362;50.208;9.182;2023-07-24T09:03:22;6.38;;;3.97;;
12593;SDS011;6362;50.208;9.182;2023-07-24T09:05:47;7.88;;;4.38;;
12593;SDS011;6362;50.208;9.182;2023-07-24T09:08:12;7.57;;;3.88;;
12593;SDS011;6362;50.208;9.182;2023-07-24T09:10:38;8.35;;;3.88;;
12593;SDS011;6362;50.208;9.182;2023-07-24T09:13:04;10.77;;;4.47;;
12593;SDS011;6362;50.208;9.182;2023-07-24T09:15:39;5.80;;;4.07;;
12593;SDS011;6362;50.208;9.182;2023-07-24T09:18:08;8.30;;;4.68;;
12593;SDS011;6362;50.208;9.182;2023-07-24T09:20:38;8.85;;;4.75;;
12593;SDS011;6362;50.208;9.182;2023-07-24T09:23:05;6.22;;;4.13;;
12593;SDS011;6362;50.208;9.182;2023-07-24T09:25:32;7.45;;;4.30;;
12593;SDS011;6362;50.208;9.182;2023-07-24T09:27:59;6.25;;;4.32;;
12593;SDS011;6362;50.208;9.182;2023-07-24T09:30:24;6.85;;;4.75;;
12593;SDS011;6362;50.208;9.182;2023-07-24T09:32:53;5.57;;;4.28;;
12593;SDS011;6362;50.208;9.182;2023-07-24T09:35:19;7.82;;;4.85;;
12593;SDS011;6362;50.208;9.182;2023-07-24T09:37:46;10.00;;;4.93;;
12593;SDS011;6362;50.208;9.182;2023-07-24T09:40:12;7.70;;;4.60;;
12593;SDS011;6362;50.208;9.182;2023-07-24T09:42:39;8.15;;;4.30;;
12593;SDS011;6362;50.208;9.182;2023-07-24T09:45:05;6.60;;;4.57;;
12593;SDS011;6362;50.208;9.182;2023-07-24T09:47:33;10.20;;;4.60;;
12593;SDS011;6362;50.208;9.182;2023-07-24T09:49:59;7.10;;;4.78;;
12593;SDS011;6362;50.208;9.182;2023-07-24T09:52:29;6.35;;;4.57;;
12593;SDS011;6362;50.208;9.182;2023-07-24T09:57:28;7.50;;;4.20;;
12593;SDS011;6362;50.208;9.182;2023-07-24T09:59:56;6.45;;;4.10;;
12593;SDS011;6362;50.208;9.182;2023-07-24T10:02:22;7.05;;;4.60;;
12593;SDS011;6362;50.208;9.182;2023-07-24T10:04:48;9.73;;;5.00;;
12593;SDS011;6362;50.208;9.182;2023-07-24T10:07:14;7.10;;;3.97;;
12593;SDS011;6362;50.208;9.182;2023-07-24T10:09:41;14.70;;;3.90;;
12593;SDS011;6362;50.208;9.182;2023-07-24T10:12:08;7.85;;;5.03;;
12593;SDS011;6362;50.208;9.182;2023-07-24T10:14:34;7.18;;;4.60;;
12593;SDS011;6362;50.208;9.182;2023-07-24T10:17:01;6.93;;;4.90;;
12593;SDS011;6362;50.208;9.182;2023-07-24T10:19:35;7.85;;;4.70;;
12593;SDS011;6362;50.208;9.182;2023-07-24T10:22:18;6.50;;;4.20;;
12593;SDS011;6362;50.208;9.182;2023-07-24T10:24:45;5.80;;;4.25;;
12593;SDS011;6362;50.208;9.182;2023-07-24T10:27:12;6.00;;;4.25;;
12593;SDS011;6362;50.208;9.182;2023-07-24T10:29:37;7.57;;;4.30;;
12593;SDS011;6362;50.208;9.182;2023-07-24T10:32:04;7.18;;;4.93;;
12593;SDS011;6362;50.208;9.182;2023-07-24T10:34:42;6.45;;;4.63;;
12593;SDS011;6362;50.208;9.182;2023-07-24T10:37:08;6.63;;;4.30;;
12593;SDS011;6362;50.208;9.182;2023-07-24T10:39:38;7.32;;;4.78;;
12593;SDS011;6362;50.208;9.182;2023-07-24T10:42:08;9.68;;;5.00;;
12593;SDS011;6362;50.208;9.182;2023-07-24T10:44:35;6.28;;;3.97;;
12593;SDS011;6362;50.208;9.182;2023-07-24T10:47:01;7.63;;;4.15;;
12593;SDS011;6362;50.208;9.182;2023-07-24T10:49:26;10.88;;;4.80;;
12593;SDS011;6362;50.208;9.182;2023-07-24T10:51:58;9.07;;;4.82;;
12593;SDS011;6362;50.208;9.182;2023-07-24T10:54:24;8.98;;;4.88;;
12593;SDS011;6362;50.208;9.182;2023-07-24T10:56:56;7.13;;;4.55;;
12593;SDS011;6362;50.208;9.182;2023-07-24T10:59:22;8.73;;;5.07;;
12593;SDS011;6362;50.208;9.182;2023-07-24T11:01:49;7.65;;;4.53;;
12593;SDS011;6362;50.208;9.182;2023-07-24T11:04:14;9.18;;;5.00;;
12593;SDS011;6362;50.208;9.182;2023-07-24T11:06:40;9.60;;;5.47;;
12593;SDS011;6362;50.208;9.182;2023-07-24T11:09:05;10.40;;;5.38;;
12593;SDS011;6362;50.208;9.182;2023-07-24T11:11:31;9.50;;;4.65;;
12593;SDS011;6362;50.208;9.182;2023-07-24T11:13:58;6.57;;;4.45;;
12593;SDS011;6362;50.208;9.182;2023-07-24T11:16:25;6.93;;;4.40;;
12593;SDS011;6362;50.208;9.182;2023-07-24T11:18:51;6.25;;;4.07;;
12593;SDS011;6362;50.208;9.182;2023-07-24T11:21:17;7.25;;;3.88;;
12593;SDS011;6362;50.208;9.182;2023-07-24T11:23:49;5.60;;;3.72;;
12593;SDS011;6362;50.208;9.182;2023-07-24T11:26:18;6.70;;;4.47;;
12593;SDS011;6362;50.208;9.182;2023-07-24T11:28:44;5.97;;;4.30;;
12593;SDS011;6362;50.208;9.182;2023-07-24T11:31:09;5.75;;;4.00;;
12593;SDS011;6362;50.208;9.182;2023-07-24T11:33:36;5.75;;;4.05;;
12593;SDS011;6362;50.208;9.182;2023-07-24T11:36:03;7.50;;;4.53;;
12593;SDS011;6362;50.208;9.182;2023-07-24T11:38:31;8.60;;;4.57;;
12593;SDS011;6362;50.208;9.182;2023-07-24T11:41:00;8.65;;;4.78;;
12593;SDS011;6362;50.208;9.182;2023-07-24T11:43:26;8.13;;;4.50;;
12593;SDS011;6362;50.208;9.182;2023-07-24T11:45:52;8.75;;;4.53;;
12593;SDS011;6362;50.208;9.182;2023-07-24T11:48:19;7.22;;;4.75;;
12593;SDS011;6362;50.208;9.182;2023-07-24T11:50:50;7.22;;;4.82;;
12593;SDS011;6362;50.208;9.182;2023-07-24T11:53:27;6.78;;;4.88;;
12593;SDS011;6362;50.208;9.182;2023-07-24T11:55:54;8.02;;;5.40;;
12593;SDS011;6362;50.208;9.182;2023-07-24T11:58:21;8.30;;;5.07;;
12593;SDS011;6362;50.208;9.182;2023-07-24T12:00:48;6.93;;;4.63;;
12593;SDS011;6362;50.208;9.182;2023-07-24T12:03:35;6.15;;;4.45;;
12593;SDS011;6362;50.208;9.182;2023-07-24T12:05:59;8.48;;;4.05;;
12593;SDS011;6362;50.208;9.182;2023-07-24T12:08:32;12.45;;;4.88;;
12593;SDS011;6362;50.208;9.182;2023-07-24T12:10:59;7.63;;;4.13;;
12593;SDS011;6362;50.208;9.182;2023-07-24T12:13:25;6.60;;;4.15;;
12593;SDS011;6362;50.208;9.182;2023-07-24T12:15:50;6.88;;;4.15;;
12593;SDS011;6362;50.208;9.182;2023-07-24T12:18:16;7.13;;;4.30;;
12593;SDS011;6362;50.208;9.182;2023-07-24T12:20:42;5.15;;;4.35;;
12593;SDS011;6362;50.208;9.182;2023-07-24T12:23:07;7.22;;;4.45;;
12593;SDS011;6362;50.208;9.182;2023-07-24T12:25:33;8.48;;;4.10;;
12593;SDS011;6362;50.208;9.182;2023-07-24T12:27:58;6.85;;;4.47;;
12593;SDS011;6362;50.208;9.182;2023-07-24T12:30:24;6.97;;;4.43;;
12593;SDS011;6362;50.208;9.182;2023-07-24T12:32:49;8.13;;;4.70;;
12593;SDS011;6362;50.208;9.182;2023-07-24T12:35:15;8.02;;;4.70;;
12593;SDS011;6362;50.208;9.182;2023-07-24T12:37:41;7.63;;;4.82;;
12593;SDS011;6362;50.208;9.182;2023-07-24T12:40:07;6.43;;;4.65;;
12593;SDS011;6362;50.208;9.182;2023-07-24T12:42:33;7.40;;;5.10;;
12593;SDS011;6362;50.208;9.182;2023-07-24T12:44:59;7.60;;;5.13;;
12593;SDS011;6362;50.208;9.182;2023-07-24T12:47:25;9.00;;;4.72;;
12593;SDS011;6362;50.208;9.182;2023-07-24T12:49:50;7.50;;;4.40;;
12593;SDS011;6362;50.208;9.182;2023-07-24T12:52:17;7.20;;;4.53;;
12593;SDS011;6362;50.208;9.182;2023-07-24T12:54:43;6.20;;;4.47;;
12593;SDS011;6362;50.208;9.182;2023-07-24T12:57:08;6.25;;;4.75;;
12593;SDS011;6362;50.208;9.182;2023-07-24T12:59:34;7.75;;;5.20;;
12593;SDS011;6362;50.208;9.182;2023-07-24T13:01:59;6.25;;;4.35;;
12593;SDS011;6362;50.208;9.182;2023-07-24T13:04:24;5.63;;;4.22;;
12593;SDS011;6362;50.208;9.182;2023-07-24T13:06:50;6.88;;;4.20;;
12593;SDS011;6362;50.208;9.182;2023-07-24T13:09:15;8.75;;;4.85;;
12593;SDS011;6362;50.208;9.182;2023-07-24T13:11:41;7.72;;;4.30;;
12593;SDS011;6362;50.208;9.182;2023-07-24T13:14:06;6.28;;;4.18;;
12593;SDS011;6362;50.208;9.182;2023-07-24T13:16:32;6.07;;;4.00;;
12593;SDS011;6362;50.208;9.182;2023-07-24T13:18:57;8.02;;;5.35;;
12593;SDS011;6362;50.208;9.182;2023-07-24T13:21:23;6.15;;;4.65;;
12593;SDS011;6362;50.208;9.182;2023-07-24T13:23:48;7.78;;;3.90;;
12593;SDS011;6362;50.208;9.182;2023-07-24T13:26:14;4.93;;;3.67;;
12593;SDS011;6362;50.208;9.182;2023-07-24T13:28:40;7.22;;;3.60;;
12593;SDS011;6362;50.208;9.182;2023-07-24T13:31:16;4.25;;;3.33;;
12593;SDS011;6362;50.208;9.182;2023-07-24T13:33:43;5.20;;;3.10;;
12593;SDS011;6362;50.208;9.182;2023-07-24T13:36:08;4.30;;;3.17;;
12593;SDS011;6362;50.208;9.182;2023-07-24T13:38:34;6.50;;;3.30;;
12593;SDS011;6362;50.208;9.182;2023-07-24T13:41:00;7.13;;;3.67;;
12593;SDS011;6362;50.208;9.182;2023-07-24T13:43:26;6.75;;;3.47;;
12593;SDS011;6362;50.208;9.182;2023-07-24T13:45:52;5.43;;;3.22;;
12593;SDS011;6362;50.208;9.182;2023-07-24T13:48:18;6.05;;;3.25;;
12593;SDS011;6362;50.208;9.182;2023-07-24T13:50:43;7.53;;;3.95;;
12593;SDS011;6362;50.208;9.182;2023-07-24T13:53:09;7.22;;;3.65;;
12593;SDS011;6362;50.208;9.182;2023-07-24T13:55:34;5.68;;;3.72;;
12593;SDS011;6362;50.208;9.182;2023-07-24T13:58:00;5.22;;;3.58;;
12593;SDS011;6362;50.208;9.182;2023-07-24T14:00:25;7.22;;;4.38;;
12593;SDS011;6362;50.208;9.182;2023-07-24T14:02:51;5.65;;;4.13;;
12593;SDS011;6362;50.208;9.182;2023-07-24T14:05:17;5.40;;;3.83;;
12593;SDS011;6362;50.208;9.182;2023-07-24T14:07:42;6.60;;;4.55;;
12593;SDS011;6362;50.208;9.182;2023-07-24T14:10:09;9.05;;;4.82;;
12593;SDS011;6362;50.208;9.182;2023-07-24T14:12:35;7.75;;;4.28;;
12593;SDS011;6362;50.208;9.182;2023-07-24T14:15:00;7.05;;;4.50;;
12593;SDS011;6362;50.208;9.182;2023-07-24T14:17:26;6.18;;;4.15;;
12593;SDS011;6362;50.208;9.182;2023-07-24T14:19:52;7.13;;;4.35;;
12593;SDS011;6362;50.208;9.182;2023-07-24T14:22:17;7.50;;;5.68;;
12593;SDS011;6362;50.208;9.182;2023-07-24T14:24:42;6.80;;;4.53;;
12593;SDS011;6362;50.208;9.182;2023-07-24T14:27:08;7.63;;;5.03;;
12593;SDS011;6362;50.208;9.182;2023-07-24T14:29:33;6.97;;;4.55;;
12593;SDS011;6362;50.208;9.182;2023-07-24T14:31:59;9.63;;;4.53;;
12593;SDS011;6362;50.208;9.182;2023-07-24T14:34:24;8.40;;;4.65;;
12593;SDS011;6362;50.208;9.182;2023-07-24T14:36:50;8.57;;;4.85;;
12593;SDS011;6362;50.208;9.182;2023-07-24T14:39:15;4.25;;;3.55;;
12593;SDS011;6362;50.208;9.182;2023-07-24T14:41:40;5.45;;;3.75;;
12593;SDS011;6362;50.208;9.182;2023-07-24T14:44:06;6.65;;;4.43;;
12593;SDS011;6362;50.208;9.182;2023-07-24T14:46:31;10.98;;;5.32;;
12593;SDS011;6362;50.208;9.182;2023-07-24T14:48:57;17.77;;;6.70;;
12593;SDS011;6362;50.208;9.182;2023-07-24T14:51:23;11.85;;;7.00;;
12593;SDS011;6362;50.208;9.182;2023-07-24T14:53:48;12.10;;;6.40;;
12593;SDS011;6362;50.208;9.182;2023-07-24T14:56:14;11.20;;;6.72;;
12593;SDS011;6362;50.208;9.182;2023-07-24T14:58:39;9.55;;;5.90;;
12593;SDS011;6362;50.208;9.182;2023-07-24T15:01:07;11.77;;;5.93;;
12593;SDS011;6362;50.208;9.182;2023-07-24T15:03:32;9.52;;;6.20;;